Leslie, Georgia
Current Conditions -  °F | °C
As of 3:15 PM on Monday 24 Nov 2014 (Local Time) from KACJ Reporting Station
Thunderstorm Thunderstorm  
Wind Chill: 73°   Ceiling: 12000
Heat Index: 73°   Visibility: 10mi
Dew Point: 63°   Wind: 7mph
Humidity: 69%   Direction: 210°SSW
Pressure: 29.83"   Gusts: NA
Location:  31.96°N, 84.09°W
Report Text: KACJ 242015Z AUTO 21006KT 10SM VCTS BKN120 23/17 A2983 RMK AO2 LTG DSNT SE AND S
Loading
Personal Weather Stations






























Interactive Weather Map New forecast layout! Learn more

10-Day Weather Forecast

Advertisements
Track Severe Weather on mobile